Time;durP1;ratioP1;P1;durP2;ratioP2;P2;SDS_P1;SDS_P2;PMS_P1;PMS_P2;Temp;Humidity;BMP_temperature;BMP_pressure;BME280_temperature;BME280_humidity;BME280_pressure;Samples;Min_cycle;Max_cycle;Signal;HPM_P1;HPM_P2
2021/09/09 00:02:12;;;;;;;10.25;6.30;;;;;;;;;;1853327;77;21037;-49
2021/09/09 00:04:41;;;;;;;8.90;6.00;;;;;;;;;;1841389;77;21048;-48
2021/09/09 00:07:10;;;;;;;10.25;6.92;;;;;;;;;;1853305;76;21108;-48
2021/09/09 00:09:40;;;;;;;11.68;6.42;;;;;;;;;;1841225;78;21060;-45
2021/09/09 00:12:09;;;;;;;8.53;6.28;;;;;;;;;;1853482;77;21041;-47
2021/09/09 00:14:39;;;;;;;11.10;7.12;;;;;;;;;;1841284;77;21105;-46
2021/09/09 00:17:08;;;;;;;12.05;6.50;;;;;;;;;;1853386;76;21005;-47
2021/09/09 00:19:38;;;;;;;12.30;6.22;;;;;;;;;;1841259;78;21142;-46
2021/09/09 00:22:08;;;;;;;13.65;6.95;;;;;;;;;;1853370;77;21037;-49
2021/09/09 00:24:38;;;;;;;8.93;5.37;;;;;;;;;;1841214;77;21020;-49
2021/09/09 00:27:07;;;;;;;10.90;6.25;;;;;;;;;;1853258;76;21022;-46
2021/09/09 00:29:36;;;;;;;15.03;6.35;;;;;;;;;;1841266;77;21167;-48
2021/09/09 00:32:06;;;;;;;13.80;5.83;;;;;;;;;;1853355;77;21037;-49
2021/09/09 00:34:35;;;;;;;12.98;6.35;;;;;;;;;;1841246;78;21076;-49
2021/09/09 00:37:05;;;;;;;9.33;5.65;;;;;;;;;;1853450;76;21112;-50
2021/09/09 00:39:33;;;;;;;14.03;6.33;;;;;;;;;;1841163;77;21095;-48
2021/09/09 00:42:02;;;;;;;13.65;6.60;;;;;;;;;;1853269;76;21045;-48
2021/09/09 00:44:31;;;;;;;13.58;6.40;;;;;;;;;;1841204;78;21085;-48
2021/09/09 00:47:04;;;;;;;17.05;7.05;;;;;;;;;;1853408;76;21103;-49
2021/09/09 00:49:34;;;;;;;19.30;7.55;;;;;;;;;;1840691;77;21048;-48
2021/09/09 00:52:03;;;;;;;30.10;6.17;;;;;;;;;;1853344;77;21541;-46
2021/09/09 00:54:32;;;;;;;24.20;7.35;;;;;;;;;;1841268;77;21118;-47
2021/09/09 00:57:01;;;;;;;19.50;7.50;;;;;;;;;;1853393;77;21025;-49
2021/09/09 00:59:31;;;;;;;21.95;6.78;;;;;;;;;;1841198;77;21107;-45
2021/09/09 01:02:01;;;;;;;13.25;5.95;;;;;;;;;;1853238;76;21049;-47
2021/09/09 01:04:29;;;;;;;11.90;6.50;;;;;;;;;;1841177;77;21048;-48
2021/09/09 01:06:59;;;;;;;11.40;6.60;;;;;;;;;;1853224;76;21058;-49
2021/09/09 01:09:28;;;;;;;8.98;5.83;;;;;;;;;;1841174;78;21118;-46
2021/09/09 01:11:57;;;;;;;10.68;5.55;;;;;;;;;;1853178;77;21119;-46
2021/09/09 01:14:26;;;;;;;12.50;6.87;;;;;;;;;;1841074;78;21084;-49
2021/09/09 01:16:54;;;;;;;14.60;7.00;;;;;;;;;;1853208;77;21025;-48
2021/09/09 01:19:24;;;;;;;12.07;6.37;;;;;;;;;;1834090;78;21154;-47
2021/09/09 01:21:52;;;;;;;12.25;6.37;;;;;;;;;;1837593;77;21042;-49
2021/09/09 01:24:22;;;;;;;15.83;6.80;;;;;;;;;;1822481;78;21045;-49
2021/09/09 01:26:56;;;;;;;11.25;6.37;;;;;;;;;;1837483;76;21026;-46
2021/09/09 01:29:25;;;;;;;9.48;6.12;;;;;;;;;;1822476;79;21558;-49
2021/09/09 01:31:55;;;;;;;10.98;7.10;;;;;;;;;;1837667;77;21112;-48
2021/09/09 01:34:24;;;;;;;9.53;6.40;;;;;;;;;;1822474;79;21174;-45
2021/09/09 01:36:54;;;;;;;8.00;6.10;;;;;;;;;;1837713;78;21034;-47
2021/09/09 01:39:23;;;;;;;9.18;5.85;;;;;;;;;;1822453;79;21065;-46
2021/09/09 01:41:52;;;;;;;12.35;6.47;;;;;;;;;;1837468;77;21046;-47
2021/09/09 01:44:22;;;;;;;12.05;7.17;;;;;;;;;;1822577;78;21194;-48
2021/09/09 01:46:51;;;;;;;9.98;6.67;;;;;;;;;;1837541;78;21100;-48
2021/09/09 01:49:20;;;;;;;9.30;6.85;;;;;;;;;;1822498;79;21049;-48
2021/09/09 01:51:49;;;;;;;9.55;5.67;;;;;;;;;;1837680;78;21010;-48
2021/09/09 01:54:18;;;;;;;17.65;7.25;;;;;;;;;;1822600;78;21115;-48
2021/09/09 01:56:46;;;;;;;16.65;8.08;;;;;;;;;;1837630;76;21042;-46
2021/09/09 01:59:15;;;;;;;15.13;7.33;;;;;;;;;;1822548;79;21123;-48
2021/09/09 02:01:44;;;;;;;15.60;6.67;;;;;;;;;;1837498;77;21093;-49
2021/09/09 02:04:13;;;;;;;12.58;6.95;;;;;;;;;;1822571;79;21061;-46
2021/09/09 02:06:42;;;;;;;12.85;7.08;;;;;;;;;;1837556;77;21088;-45
2021/09/09 02:09:11;;;;;;;13.78;7.17;;;;;;;;;;1822420;79;21037;-45
2021/09/09 02:11:40;;;;;;;10.55;6.62;;;;;;;;;;1837508;76;21116;-48
2021/09/09 02:14:09;;;;;;;12.13;7.00;;;;;;;;;;1822440;78;21042;-47
2021/09/09 02:16:37;;;;;;;14.13;7.55;;;;;;;;;;1837524;78;21022;-45
2021/09/09 02:19:06;;;;;;;13.80;7.75;;;;;;;;;;1822433;77;21057;-49
2021/09/09 02:21:35;;;;;;;13.30;7.30;;;;;;;;;;1837540;77;21026;-47
2021/09/09 02:24:04;;;;;;;11.60;7.62;;;;;;;;;;1822527;78;21061;-49
2021/09/09 02:26:33;;;;;;;17.80;8.08;;;;;;;;;;1837626;78;21042;-49
2021/09/09 02:29:02;;;;;;;18.62;9.00;;;;;;;;;;1822443;78;21057;-48
2021/09/09 02:31:31;;;;;;;11.90;7.30;;;;;;;;;;1837639;77;21033;-46
2021/09/09 02:34:00;;;;;;;19.50;8.58;;;;;;;;;;1822420;79;21127;-46
2021/09/09 02:36:30;;;;;;;15.00;7.75;;;;;;;;;;1837589;78;21081;-46
2021/09/09 02:38:58;;;;;;;17.87;8.35;;;;;;;;;;1822682;78;21526;-47
2021/09/09 02:41:27;;;;;;;13.78;7.67;;;;;;;;;;1837640;77;21100;-48
2021/09/09 02:43:56;;;;;;;18.50;8.28;;;;;;;;;;1822558;79;21065;-48
2021/09/09 02:46:25;;;;;;;18.48;8.58;;;;;;;;;;1837692;77;21010;-49
2021/09/09 02:48:54;;;;;;;22.50;9.58;;;;;;;;;;1822594;78;21053;-47
2021/09/09 02:51:23;;;;;;;15.03;8.60;;;;;;;;;;1837611;78;21104;-49
2021/09/09 02:53:51;;;;;;;12.85;8.05;;;;;;;;;;1822480;79;21119;-48
2021/09/09 02:56:20;;;;;;;17.60;8.15;;;;;;;;;;1837436;77;21042;-48
2021/09/09 02:58:49;;;;;;;14.18;7.75;;;;;;;;;;1822400;78;21057;-49
2021/09/09 03:01:18;;;;;;;20.37;7.53;;;;;;;;;;1837484;76;21045;-48
2021/09/09 03:03:46;;;;;;;19.60;8.55;;;;;;;;;;1822492;79;21061;-48
2021/09/09 03:06:15;;;;;;;15.48;8.33;;;;;;;;;;1837541;77;21135;-48
2021/09/09 03:08:43;;;;;;;22.02;8.53;;;;;;;;;;1822462;79;21119;-46
2021/09/09 03:11:12;;;;;;;14.30;8.20;;;;;;;;;;1837580;77;21006;-49
2021/09/09 03:13:41;;;;;;;17.10;8.70;;;;;;;;;;1822477;78;21057;-47
2021/09/09 03:16:10;;;;;;;13.32;7.20;;;;;;;;;;1837594;77;21054;-48
2021/09/09 03:18:38;;;;;;;17.77;7.22;;;;;;;;;;1822490;79;21061;-46
2021/09/09 03:21:07;;;;;;;19.12;7.92;;;;;;;;;;1849397;76;21057;-46
2021/09/09 03:23:36;;;;;;;16.57;8.18;;;;;;;;;;1831457;78;21119;-49
2021/09/09 03:26:05;;;;;;;17.20;8.13;;;;;;;;;;1849677;76;21089;-49
2021/09/09 03:28:34;;;;;;;16.67;8.63;;;;;;;;;;1831402;78;21037;-47
2021/09/09 03:31:03;;;;;;;18.98;8.38;;;;;;;;;;1849535;76;21099;-46
2021/09/09 03:33:31;;;;;;;19.17;8.23;;;;;;;;;;1831515;78;21041;-49
2021/09/09 03:36:00;;;;;;;22.85;9.53;;;;;;;;;;1849664;77;21143;-47
2021/09/09 03:38:29;;;;;;;15.32;7.75;;;;;;;;;;1831362;77;21060;-47
2021/09/09 03:40:58;;;;;;;22.50;8.53;;;;;;;;;;1849487;76;21045;-47
2021/09/09 03:43:27;;;;;;;18.05;8.40;;;;;;;;;;1831400;78;21056;-46
2021/09/09 03:45:56;;;;;;;17.60;8.00;;;;;;;;;;1849538;77;21103;-46
2021/09/09 03:48:25;;;;;;;17.50;8.63;;;;;;;;;;1831355;77;21112;-48
2021/09/09 03:50:54;;;;;;;18.77;9.08;;;;;;;;;;1849628;76;21045;-48
2021/09/09 03:53:23;;;;;;;21.30;9.78;;;;;;;;;;1831308;77;21060;-49
2021/09/09 03:55:52;;;;;;;17.82;8.70;;;;;;;;;;1849543;76;21174;-49
2021/09/09 03:58:21;;;;;;;18.92;8.68;;;;;;;;;;1831344;78;21064;-46
2021/09/09 04:00:50;;;;;;;20.10;9.90;;;;;;;;;;1849498;77;21045;-49
2021/09/09 04:03:18;;;;;;;24.90;9.10;;;;;;;;;;1831320;78;21060;-46
2021/09/09 04:05:47;;;;;;;17.23;8.05;;;;;;;;;;1849542;76;21040;-48
2021/09/09 04:08:16;;;;;;;23.60;9.10;;;;;;;;;;1831535;77;21119;-47
2021/09/09 04:10:45;;;;;;;21.73;10.00;;;;;;;;;;1849584;77;21077;-50
2021/09/09 04:13:14;;;;;;;18.87;10.48;;;;;;;;;;1831467;78;21064;-49
2021/09/09 04:15:43;;;;;;;26.62;13.62;;;;;;;;;;1831372;78;21056;-46
2021/09/09 04:18:11;;;;;;;21.25;9.40;;;;;;;;;;1831537;77;21107;-48
2021/09/09 04:20:40;;;;;;;29.12;12.70;;;;;;;;;;1849640;76;21127;-48
2021/09/09 04:23:09;;;;;;;44.15;10.75;;;;;;;;;;1831330;77;21045;-49
2021/09/09 04:25:38;;;;;;;21.25;8.48;;;;;;;;;;1831380;77;21052;-47
2021/09/09 04:28:07;;;;;;;18.52;8.18;;;;;;;;;;1849674;77;21006;-48
2021/09/09 04:30:36;;;;;;;16.15;8.43;;;;;;;;;;1831403;77;21025;-45
2021/09/09 04:33:04;;;;;;;14.83;8.43;;;;;;;;;;1849602;76;21401;-49
2021/09/09 04:35:33;;;;;;;22.45;10.10;;;;;;;;;;1831416;78;21037;-48
2021/09/09 04:38:02;;;;;;;18.52;9.53;;;;;;;;;;1831367;78;21037;-48
2021/09/09 04:40:31;;;;;;;21.23;10.03;;;;;;;;;;1849623;76;21104;-48
2021/09/09 04:43:00;;;;;;;58.02;12.18;;;;;;;;;;1831465;78;21123;-47
2021/09/09 04:45:28;;;;;;;24.98;10.65;;;;;;;;;;1831422;77;21056;-47
2021/09/09 04:47:58;;;;;;;17.30;9.95;;;;;;;;;;1831483;78;21056;-48
2021/09/09 04:50:27;;;;;;;29.67;11.20;;;;;;;;;;1849704;76;21002;-45
2021/09/09 04:52:56;;;;;;;22.13;10.90;;;;;;;;;;1831520;78;21160;-46
2021/09/09 04:55:25;;;;;;;20.02;11.95;;;;;;;;;;1831468;77;21088;-48
2021/09/09 04:57:54;;;;;;;21.85;11.75;;;;;;;;;;1831434;78;21119;-48
2021/09/09 05:00:22;;;;;;;25.10;14.15;;;;;;;;;;1831541;77;21033;-49
2021/09/09 05:02:51;;;;;;;26.07;12.98;;;;;;;;;;1831469;77;21511;-48
2021/09/09 05:05:20;;;;;;;25.15;12.28;;;;;;;;;;1831407;78;21127;-47
2021/09/09 05:07:48;;;;;;;19.65;12.30;;;;;;;;;;1831380;78;21123;-46
2021/09/09 05:10:17;;;;;;;18.32;11.45;;;;;;;;;;1831372;78;21056;-49
2021/09/09 05:12:46;;;;;;;18.65;9.75;;;;;;;;;;1831476;77;21156;-48
2021/09/09 05:15:15;;;;;;;17.37;9.55;;;;;;;;;;1849731;77;21061;-49
2021/09/09 05:17:43;;;;;;;18.65;9.90;;;;;;;;;;1831553;78;21053;-50
2021/09/09 05:20:13;;;;;;;15.15;9.45;;;;;;;;;;1847173;76;21057;-46
2021/09/09 05:22:42;;;;;;;13.65;8.55;;;;;;;;;;1822593;78;21045;-47
2021/09/09 05:25:11;;;;;;;13.40;9.68;;;;;;;;;;1837461;76;21104;-49
2021/09/09 05:27:40;;;;;;;22.77;11.03;;;;;;;;;;1822478;79;21111;-46
2021/09/09 05:30:09;;;;;;;16.87;8.68;;;;;;;;;;1822398;78;21053;-49
2021/09/09 05:32:38;;;;;;;28.05;12.47;;;;;;;;;;1837528;77;21026;-49
2021/09/09 05:35:07;;;;;;;14.90;7.92;;;;;;;;;;1822386;79;21096;-49
2021/09/09 05:37:36;;;;;;;23.60;7.75;;;;;;;;;;1837485;76;21100;-47
2021/09/09 05:40:05;;;;;;;20.55;7.58;;;;;;;;;;1822517;78;21100;-45
2021/09/09 05:42:34;;;;;;;11.83;6.25;;;;;;;;;;1837514;77;21022;-47
2021/09/09 05:45:04;;;;;;;16.75;6.33;;;;;;;;;;1822455;79;21103;-50
2021/09/09 05:47:33;;;;;;;16.20;9.08;;;;;;;;;;1837564;76;21088;-48
2021/09/09 05:50:02;;;;;;;15.18;9.18;;;;;;;;;;1822546;79;21033;-49
2021/09/09 05:52:31;;;;;;;12.28;6.87;;;;;;;;;;1837488;76;21038;-48
2021/09/09 05:54:59;;;;;;;15.25;6.85;;;;;;;;;;1822485;79;21065;-48
2021/09/09 05:57:29;;;;;;;11.05;7.40;;;;;;;;;;1837611;77;21054;-49
2021/09/09 05:59:57;;;;;;;13.95;7.08;;;;;;;;;;1822565;78;21172;-48
2021/09/09 06:02:27;;;;;;;16.40;7.42;;;;;;;;;;1837389;76;21010;-46
2021/09/09 06:04:57;;;;;;;18.48;10.68;;;;;;;;;;1822595;79;21099;-46
2021/09/09 06:07:29;;;;;;;13.62;6.62;;;;;;;;;;1822424;78;21052;-47
2021/09/09 06:09:58;;;;;;;13.55;6.65;;;;;;;;;;1837491;77;21143;-49
2021/09/09 06:12:27;;;;;;;20.20;9.00;;;;;;;;;;1822417;79;21065;-45
2021/09/09 06:14:56;;;;;;;13.32;6.92;;;;;;;;;;1837463;76;21093;-49
2021/09/09 06:17:25;;;;;;;17.48;6.17;;;;;;;;;;1822426;78;21106;-48
2021/09/09 06:19:54;;;;;;;9.50;5.87;;;;;;;;;;1837521;77;21002;-47
2021/09/09 06:22:23;;;;;;;11.03;5.87;;;;;;;;;;1841537;77;21060;-48
2021/09/09 06:24:52;;;;;;;11.80;6.00;;;;;;;;;;1864914;77;21033;-49
2021/09/09 06:27:21;;;;;;;18.85;8.45;;;;;;;;;;1846313;77;21119;-50
2021/09/09 06:29:50;;;;;;;14.07;6.87;;;;;;;;;;1864893;76;21151;-49
2021/09/09 06:32:19;;;;;;;7.05;4.67;;;;;;;;;;1846418;78;21056;-48
2021/09/09 06:34:48;;;;;;;11.38;5.72;;;;;;;;;;1864883;77;21041;-49
2021/09/09 06:37:17;;;;;;;12.37;6.08;;;;;;;;;;1846473;77;21056;-47
2021/09/09 06:39:46;;;;;;;11.10;6.00;;;;;;;;;;1865016;77;21146;-50
2021/09/09 06:42:14;;;;;;;15.03;6.35;;;;;;;;;;1846189;77;21122;-48
2021/09/09 06:44:43;;;;;;;10.28;6.70;;;;;;;;;;1864709;76;21104;-48
2021/09/09 06:47:12;;;;;;;12.45;5.83;;;;;;;;;;1846341;77;21119;-50
2021/09/09 06:49:41;;;;;;;10.65;6.28;;;;;;;;;;1864752;77;21040;-45
2021/09/09 06:52:10;;;;;;;10.70;5.67;;;;;;;;;;1846429;77;21056;-49
2021/09/09 06:54:39;;;;;;;11.20;6.53;;;;;;;;;;1864756;77;21047;-48
2021/09/09 06:57:07;;;;;;;10.15;5.05;;;;;;;;;;1846264;77;21052;-48
2021/09/09 06:59:36;;;;;;;6.15;4.78;;;;;;;;;;1864841;77;21065;-46
2021/09/09 07:02:06;;;;;;;36.05;8.35;;;;;;;;;;1846350;77;21076;-48
2021/09/09 07:04:34;;;;;;;8.88;5.10;;;;;;;;;;1864815;76;21037;-48
2021/09/09 07:07:03;;;;;;;5.50;4.45;;;;;;;;;;1846198;77;21056;-48
2021/09/09 07:09:32;;;;;;;6.55;4.55;;;;;;;;;;1864886;76;21032;-47
2021/09/09 07:12:01;;;;;;;8.03;4.53;;;;;;;;;;1846271;77;21060;-46
2021/09/09 07:14:30;;;;;;;11.65;4.42;;;;;;;;;;1864884;75;21021;-48
2021/09/09 07:16:58;;;;;;;9.33;4.72;;;;;;;;;;1846375;78;21060;-49
2021/09/09 07:19:27;;;;;;;5.40;4.20;;;;;;;;;;1864809;75;21095;-46
2021/09/09 07:21:56;;;;;;;9.50;4.50;;;;;;;;;;1846236;77;21261;-47
2021/09/09 07:24:25;;;;;;;17.82;5.03;;;;;;;;;;1864776;77;21100;-48
2021/09/09 07:26:54;;;;;;;10.53;4.72;;;;;;;;;;1846369;77;21052;-48
2021/09/09 07:29:22;;;;;;;9.68;4.72;;;;;;;;;;1864821;77;21021;-45
2021/09/09 07:31:51;;;;;;;5.53;4.37;;;;;;;;;;1845128;77;21110;-47
2021/09/09 07:34:20;;;;;;;7.05;3.67;;;;;;;;;;1864214;75;21120;-49
2021/09/09 07:36:49;;;;;;;8.13;3.90;;;;;;;;;;1845309;78;21126;-46
2021/09/09 07:39:19;;;;;;;9.20;3.67;;;;;;;;;;1863891;77;21098;-46
2021/09/09 07:41:48;;;;;;;8.38;6.15;;;;;;;;;;1845773;77;21490;-48
2021/09/09 07:44:17;;;;;;;3.25;2.62;;;;;;;;;;1864149;76;21443;-47
2021/09/09 07:46:45;;;;;;;5.45;3.27;;;;;;;;;;1845694;77;21021;-48
2021/09/09 07:49:15;;;;;;;6.85;3.65;;;;;;;;;;1864328;76;21041;-47
2021/09/09 07:51:45;;;;;;;7.12;4.40;;;;;;;;;;1855172;76;21034;-47
2021/09/09 07:54:14;;;;;;;7.00;4.08;;;;;;;;;;1858037;76;21040;-45
2021/09/09 07:56:43;;;;;;;7.70;4.28;;;;;;;;;;1855711;76;21086;-49
2021/09/09 07:59:12;;;;;;;9.48;3.72;;;;;;;;;;1853882;76;21020;-46
2021/09/09 08:01:43;;;;;;;4.15;3.20;;;;;;;;;;1845626;78;21036;-45
2021/09/09 08:04:15;;;;;;;4.62;2.90;;;;;;;;;;1845652;78;21059;-49
2021/09/09 08:06:43;;;;;;;3.50;3.12;;;;;;;;;;1845452;78;21174;-48
2021/09/09 08:09:12;;;;;;;5.10;2.72;;;;;;;;;;1861012;77;21175;-44
2021/09/09 08:11:41;;;;;;;5.80;3.08;;;;;;;;;;1866030;76;21139;-45
2021/09/09 08:14:10;;;;;;;5.10;4.22;;;;;;;;;;1899835;75;21092;-47
2021/09/09 08:16:38;;;;;;;6.75;2.77;;;;;;;;;;1859899;77;21041;-47
2021/09/09 08:19:07;;;;;;;8.90;3.25;;;;;;;;;;1849464;76;21179;-49
2021/09/09 08:21:37;;;;;;;3.40;2.10;;;;;;;;;;1844056;77;21127;-50
2021/09/09 08:24:16;;;;;;;9.68;4.92;;;;;;;;;;1831223;77;21062;-49
2021/09/09 08:26:52;;;;;;;6.03;2.50;;;;;;;;;;1827893;77;21033;-47
2021/09/09 08:29:27;;;;;;;2.80;2.15;;;;;;;;;;1847772;77;21030;-47
2021/09/09 08:32:04;;;;;;;6.37;4.03;;;;;;;;;;1850860;77;21030;-44
2021/09/09 08:34:43;;;;;;;3.55;2.52;;;;;;;;;;1852939;77;21567;-46
2021/09/09 08:37:21;;;;;;;4.85;2.90;;;;;;;;;;1838612;77;21029;-45
2021/09/09 08:39:58;;;;;;;5.60;2.98;;;;;;;;;;1839846;77;21533;-46
2021/09/09 08:42:28;;;;;;;7.08;4.50;;;;;;;;;;1834866;77;21158;-47
2021/09/09 08:44:57;;;;;;;8.30;4.12;;;;;;;;;;1840468;77;21147;-50
2021/09/09 08:47:27;;;;;;;6.25;2.80;;;;;;;;;;1853472;77;21093;-48
2021/09/09 08:49:55;;;;;;;7.20;2.22;;;;;;;;;;1853483;77;21176;-48
2021/09/09 08:52:24;;;;;;;4.03;2.27;;;;;;;;;;1847863;77;21041;-45
2021/09/09 08:54:53;;;;;;;4.53;2.62;;;;;;;;;;1835430;77;21013;-50
2021/09/09 08:57:22;;;;;;;6.10;2.50;;;;;;;;;;1843148;77;21084;-48
2021/09/09 08:59:51;;;;;;;5.37;2.30;;;;;;;;;;1831497;77;21080;-48
2021/09/09 09:02:21;;;;;;;9.98;2.62;;;;;;;;;;1830695;77;21194;-45
2021/09/09 09:05:08;;;;;;;4.72;2.25;;;;;;;;;;1850715;77;21076;-46
2021/09/09 09:07:37;;;;;;;9.58;2.58;;;;;;;;;;1830928;77;21108;-45
2021/09/09 09:10:07;;;;;;;8.58;2.52;;;;;;;;;;1867892;75;21097;-47
2021/09/09 09:12:42;;;;;;;5.25;1.95;;;;;;;;;;1867406;76;21093;-44
2021/09/09 09:15:15;;;;;;;3.42;1.87;;;;;;;;;;1856340;76;21493;-46
2021/09/09 09:17:54;;;;;;;3.58;2.12;;;;;;;;;;1855193;76;21118;-46
2021/09/09 09:20:25;;;;;;;4.03;2.17;;;;;;;;;;1854135;76;21056;-44
2021/09/09 09:22:55;;;;;;;4.28;2.20;;;;;;;;;;1855233;76;21119;-44
2021/09/09 09:25:42;;;;;;;7.90;2.47;;;;;;;;;;1851329;77;21057;-45
2021/09/09 09:28:11;;;;;;;5.08;2.42;;;;;;;;;;1853653;77;21118;-45
2021/09/09 09:30:41;;;;;;;2.20;1.55;;;;;;;;;;1852885;77;21430;-47
2021/09/09 09:33:10;;;;;;;5.97;1.87;;;;;;;;;;1846667;77;21132;-49
2021/09/09 09:35:39;;;;;;;3.20;1.82;;;;;;;;;;1854228;77;21082;-48
2021/09/09 09:38:10;;;;;;;5.28;1.90;;;;;;;;;;1859423;77;21106;-49
2021/09/09 09:40:46;;;;;;;3.90;2.60;;;;;;;;;;1853519;77;21086;-44
2021/09/09 09:43:16;;;;;;;4.58;2.50;;;;;;;;;;1850956;77;21115;-44
2021/09/09 09:45:52;;;;;;;3.85;1.57;;;;;;;;;;1846410;77;21136;-45
2021/09/09 09:48:25;;;;;;;5.55;2.17;;;;;;;;;;1860463;77;21002;-49
2021/09/09 09:50:54;;;;;;;4.65;2.62;;;;;;;;;;1850720;77;21030;-45
2021/09/09 09:53:25;;;;;;;6.60;3.17;;;;;;;;;;1851373;76;21048;-47
2021/09/09 09:55:53;;;;;;;4.55;1.60;;;;;;;;;;1852811;77;21049;-49
2021/09/09 09:58:22;;;;;;;1.40;1.15;;;;;;;;;;1851614;77;21109;-50
2021/09/09 10:00:51;;;;;;;5.85;1.65;;;;;;;;;;1852180;76;21101;-48
2021/09/09 10:03:21;;;;;;;1.98;1.55;;;;;;;;;;1854993;77;21054;-49
2021/09/09 10:05:52;;;;;;;6.58;1.82;;;;;;;;;;1851204;77;21172;-51
2021/09/09 10:08:21;;;;;;;2.70;1.55;;;;;;;;;;1856646;77;21022;-51
2021/09/09 10:10:50;;;;;;;2.20;1.52;;;;;;;;;;1859497;77;21140;-47
2021/09/09 10:13:19;;;;;;;1.55;1.30;;;;;;;;;;1841098;77;21056;-51
2021/09/09 10:15:49;;;;;;;3.33;1.60;;;;;;;;;;1848481;77;21060;-50
2021/09/09 10:18:18;;;;;;;1.50;1.30;;;;;;;;;;1868021;77;21094;-50
2021/09/09 10:20:47;;;;;;;3.25;2.00;;;;;;;;;;1870323;77;21091;-51
2021/09/09 10:23:20;;;;;;;4.60;2.42;;;;;;;;;;1850223;77;21076;-47
2021/09/09 10:25:54;;;;;;;8.35;1.98;;;;;;;;;;1818719;77;21071;-48
2021/09/09 10:28:39;;;;;;;6.90;2.42;;;;;;;;;;1848235;77;21123;-48
2021/09/09 10:31:11;;;;;;;6.55;2.50;;;;;;;;;;1848983;77;21064;-52
2021/09/09 10:33:44;;;;;;;5.35;2.05;;;;;;;;;;1848967;77;21103;-51
2021/09/09 10:36:31;;;;;;;6.42;1.82;;;;;;;;;;1849004;77;21072;-51
2021/09/09 10:38:59;;;;;;;5.60;3.10;;;;;;;;;;1849040;77;21118;-51
2021/09/09 10:41:28;;;;;;;17.17;6.60;;;;;;;;;;1848932;77;21518;-51
2021/09/09 10:43:58;;;;;;;2.30;1.60;;;;;;;;;;1848688;77;21083;-49
2021/09/09 10:46:31;;;;;;;4.22;1.87;;;;;;;;;;1849848;77;21282;-51
2021/09/09 10:49:07;;;;;;;6.65;1.40;;;;;;;;;;1849978;77;21044;-51
2021/09/09 10:51:35;;;;;;;6.17;3.12;;;;;;;;;;1849959;77;21556;-49
2021/09/09 10:54:05;;;;;;;13.10;6.22;;;;;;;;;;1849794;77;21059;-50
2021/09/09 10:56:37;;;;;;;4.25;1.98;;;;;;;;;;1849915;77;21131;-51
2021/09/09 10:59:19;;;;;;;3.55;1.90;;;;;;;;;;1849811;77;21098;-51
2021/09/09 11:01:47;;;;;;;2.20;1.82;;;;;;;;;;1849762;77;21506;-49
2021/09/09 11:04:26;;;;;;;3.00;1.45;;;;;;;;;;1849821;77;21056;-50
2021/09/09 11:06:55;;;;;;;9.85;3.98;;;;;;;;;;1849847;77;21044;-50
2021/09/09 11:09:24;;;;;;;3.72;1.77;;;;;;;;;;1849900;77;21020;-51
2021/09/09 11:11:54;;;;;;;1.65;1.32;;;;;;;;;;1849847;77;21139;-51
2021/09/09 11:14:24;;;;;;;6.60;1.62;;;;;;;;;;1849110;77;21115;-51
2021/09/09 11:16:54;;;;;;;2.52;1.50;;;;;;;;;;1849992;77;21106;-51
2021/09/09 11:19:23;;;;;;;3.30;1.40;;;;;;;;;;1849815;77;21106;-50
2021/09/09 11:21:53;;;;;;;3.50;1.62;;;;;;;;;;1849878;77;21036;-51
2021/09/09 11:24:22;;;;;;;4.58;1.50;;;;;;;;;;1849795;77;21150;-50
2021/09/09 11:26:51;;;;;;;10.80;3.35;;;;;;;;;;1849796;77;21071;-46
2021/09/09 11:29:23;;;;;;;1.67;1.17;;;;;;;;;;1849876;77;21048;-49
2021/09/09 11:31:53;;;;;;;4.25;1.67;;;;;;;;;;1849906;77;21032;-51
2021/09/09 11:34:24;;;;;;;4.87;2.17;;;;;;;;;;1849885;77;21048;-50
2021/09/09 11:36:53;;;;;;;2.70;2.00;;;;;;;;;;1849939;77;21055;-50
2021/09/09 11:39:22;;;;;;;3.08;1.40;;;;;;;;;;1849935;77;21127;-49
2021/09/09 11:41:54;;;;;;;6.50;1.62;;;;;;;;;;1849945;77;21087;-50
2021/09/09 11:44:27;;;;;;;4.20;1.45;;;;;;;;;;1849901;77;21529;-47
2021/09/09 11:46:56;;;;;;;2.95;1.62;;;;;;;;;;1849816;77;21051;-50
2021/09/09 11:49:26;;;;;;;2.27;1.62;;;;;;;;;;1849948;77;21494;-48
2021/09/09 11:51:55;;;;;;;2.52;1.65;;;;;;;;;;1849924;77;21119;-51
2021/09/09 11:54:31;;;;;;;2.55;1.52;;;;;;;;;;1849918;77;21051;-50
2021/09/09 11:57:04;;;;;;;4.40;1.80;;;;;;;;;;1848997;77;21131;-49
2021/09/09 11:59:34;;;;;;;2.65;1.50;;;;;;;;;;1849785;77;21040;-51
2021/09/09 12:02:07;;;;;;;8.05;1.80;;;;;;;;;;1849909;77;21052;-48
2021/09/09 12:04:40;;;;;;;7.05;2.08;;;;;;;;;;1849871;77;21114;-50
2021/09/09 12:07:09;;;;;;;3.60;1.22;;;;;;;;;;1849760;77;21636;-50
2021/09/09 12:09:39;;;;;;;2.83;1.20;;;;;;;;;;1849868;77;21052;-50
2021/09/09 12:12:10;;;;;;;4.37;2.15;;;;;;;;;;1847310;77;21088;-50
2021/09/09 12:14:39;;;;;;;5.33;1.40;;;;;;;;;;1849747;77;21129;-50
2021/09/09 12:17:15;;;;;;;5.28;1.57;;;;;;;;;;1849744;77;21107;-51
2021/09/09 12:19:57;;;;;;;15.60;9.18;;;;;;;;;;1849753;77;21510;-51
2021/09/09 12:22:43;;;;;;;7.47;1.80;;;;;;;;;;1849993;77;21052;-50
2021/09/09 12:25:17;;;;;;;5.45;1.92;;;;;;;;;;1849673;77;21154;-50
2021/09/09 12:27:59;;;;;;;5.58;1.72;;;;;;;;;;1849257;77;21592;-50
2021/09/09 12:30:29;;;;;;;14.93;1.77;;;;;;;;;;1849821;77;21122;-51
2021/09/09 12:32:58;;;;;;;1.65;1.10;;;;;;;;;;1848956;77;21200;-49
2021/09/09 12:35:28;;;;;;;5.25;1.60;;;;;;;;;;1849681;77;21044;-49
2021/09/09 12:38:00;;;;;;;3.20;1.40;;;;;;;;;;1849802;77;21098;-51
2021/09/09 12:40:39;;;;;;;2.70;1.57;;;;;;;;;;1849773;77;21161;-49
2021/09/09 12:43:24;;;;;;;2.75;1.20;;;;;;;;;;1849984;77;21095;-51
2021/09/09 12:45:51;;;;;;;;;;;;;;;;;;1852779;77;21051;-51
2021/09/09 12:48:21;;;;;;;4.20;1.35;;;;;;;;;;1849901;77;20399;-50
2021/09/09 12:50:54;;;;;;;2.70;1.47;;;;;;;;;;1849979;77;21103;-50
2021/09/09 12:53:23;;;;;;;5.35;1.87;;;;;;;;;;1849992;77;21447;-51
2021/09/09 12:55:53;;;;;;;2.55;1.98;;;;;;;;;;1849882;77;21122;-51
2021/09/09 12:58:22;;;;;;;8.15;1.70;;;;;;;;;;1849834;77;21138;-49
2021/09/09 13:00:51;;;;;;;6.50;1.60;;;;;;;;;;1849879;77;21059;-50
2021/09/09 13:03:20;;;;;;;5.42;1.47;;;;;;;;;;1849882;77;21064;-52
2021/09/09 13:05:48;;;;;;;4.50;1.85;;;;;;;;;;1849885;77;21059;-51
2021/09/09 13:08:17;;;;;;;8.68;3.17;;;;;;;;;;1849868;77;21118;-51
2021/09/09 13:10:46;;;;;;;7.30;2.22;;;;;;;;;;1849913;77;21036;-51
2021/09/09 13:13:15;;;;;;;4.83;2.02;;;;;;;;;;1849857;77;21056;-52
2021/09/09 13:15:44;;;;;;;2.92;1.47;;;;;;;;;;1849944;77;21044;-49
2021/09/09 13:18:13;;;;;;;4.08;1.60;;;;;;;;;;1849889;77;21060;-51
2021/09/09 13:20:42;;;;;;;7.10;1.72;;;;;;;;;;1850046;77;21068;-51
2021/09/09 13:23:11;;;;;;;9.53;1.87;;;;;;;;;;1849997;77;21056;-51
2021/09/09 13:25:41;;;;;;;2.90;1.50;;;;;;;;;;1849772;77;21109;-52
2021/09/09 13:28:10;;;;;;;9.58;1.65;;;;;;;;;;1849831;77;21033;-51
2021/09/09 13:30:40;;;;;;;35.10;20.15;;;;;;;;;;1849784;77;21060;-51
2021/09/09 13:33:09;;;;;;;4.45;2.22;;;;;;;;;;1849939;77;21198;-51
2021/09/09 13:35:38;;;;;;;4.08;2.30;;;;;;;;;;1850039;77;21095;-52
2021/09/09 13:38:07;;;;;;;5.75;2.30;;;;;;;;;;1849957;77;21122;-52
2021/09/09 13:40:36;;;;;;;3.05;1.90;;;;;;;;;;1850013;77;21052;-53
2021/09/09 13:43:04;;;;;;;3.98;1.70;;;;;;;;;;1850017;77;21048;-52
2021/09/09 13:45:33;;;;;;;7.00;1.60;;;;;;;;;;1849872;77;21056;-52
2021/09/09 13:48:02;;;;;;;4.60;1.90;;;;;;;;;;1849996;77;21111;-52
2021/09/09 13:50:30;;;;;;;7.35;1.82;;;;;;;;;;1849999;77;21059;-51
2021/09/09 13:52:59;;;;;;;4.25;1.80;;;;;;;;;;1849984;77;21072;-52
2021/09/09 13:55:28;;;;;;;4.22;2.45;;;;;;;;;;1850159;77;21157;-51
2021/09/09 13:57:57;;;;;;;5.30;1.77;;;;;;;;;;1849903;77;21044;-52
2021/09/09 14:00:25;;;;;;;5.28;1.70;;;;;;;;;;1850013;77;21048;-53
2021/09/09 14:02:54;;;;;;;5.05;2.10;;;;;;;;;;1849987;77;21122;-52
2021/09/09 14:05:23;;;;;;;5.97;2.52;;;;;;;;;;1849901;77;21126;-53
2021/09/09 14:07:52;;;;;;;8.05;2.52;;;;;;;;;;1849858;77;21060;-53
2021/09/09 14:10:21;;;;;;;5.58;1.98;;;;;;;;;;1849908;77;21143;-53
2021/09/09 14:12:50;;;;;;;6.62;2.00;;;;;;;;;;1849896;77;21145;-53
2021/09/09 14:15:21;;;;;;;3.98;1.72;;;;;;;;;;1849887;77;21064;-53
2021/09/09 14:17:49;;;;;;;4.35;1.60;;;;;;;;;;1850020;77;21427;-52
2021/09/09 14:20:18;;;;;;;4.85;1.50;;;;;;;;;;1850015;77;21075;-52
2021/09/09 14:22:47;;;;;;;2.10;1.57;;;;;;;;;;1849910;77;21032;-53
2021/09/09 14:25:17;;;;;;;3.87;1.98;;;;;;;;;;1857478;77;21087;-53
2021/09/09 14:27:46;;;;;;;5.35;2.25;;;;;;;;;;1868547;77;21059;-52
2021/09/09 14:30:17;;;;;;;5.00;2.20;;;;;;;;;;1868548;77;21054;-52
2021/09/09 14:32:44;;;;;;;7.62;2.60;;;;;;;;;;1868619;77;21489;-52
2021/09/09 14:35:14;;;;;;;8.60;2.72;;;;;;;;;;1868497;76;21126;-51
2021/09/09 14:37:43;;;;;;;7.37;3.37;;;;;;;;;;1868554;76;21059;-51
2021/09/09 14:40:12;;;;;;;8.60;3.12;;;;;;;;;;1868516;77;21121;-52
2021/09/09 14:42:40;;;;;;;11.97;3.30;;;;;;;;;;1868612;77;21051;-51
2021/09/09 14:45:10;;;;;;;5.28;2.80;;;;;;;;;;1868506;77;21082;-50
2021/09/09 14:47:38;;;;;;;5.97;3.50;;;;;;;;;;1868437;77;21083;-52
2021/09/09 14:50:07;;;;;;;9.15;3.85;;;;;;;;;;1868552;77;21137;-52
2021/09/09 14:52:36;;;;;;;15.28;5.50;;;;;;;;;;1868674;77;21035;-51